Time;durP1;ratioP1;P1;durP2;ratioP2;P2;SDS_P1;SDS_P2;PMS_P1;PMS_P2;Temp;Humidity;BMP_temperature;BMP_pressure;BME280_temperature;BME280_humidity;BME280_pressure;Samples;Min_cycle;Max_cycle;Signal;HPM_P1;HPM_P2
2022/07/09 00:01:55;;;;;;;6.27;2.73;;;19.90;73.50;;;;;;21091137;28;20215;-62
2022/07/09 00:11:57;;;;;;;4.37;2.40;;;19.80;74.70;;;;;;21080684;28;20209;-63
2022/07/09 00:21:59;;;;;;;4.77;2.10;;;19.60;75.90;;;;;;21081252;28;20226;-66
2022/07/09 00:32:01;;;;;;;7.77;2.57;;;19.40;77.00;;;;;;21084859;28;20836;-64
2022/07/09 00:42:10;;;;;;;3.00;1.87;;;19.30;78.00;;;;;;21109163;28;20228;-71
2022/07/09 00:52:13;;;;;;;3.67;1.93;;;19.00;78.80;;;;;;21066770;28;20235;-62
2022/07/09 01:02:22;;;;;;;9.03;1.97;;;18.90;80.00;;;;;;21079070;28;20204;-64
2022/07/09 01:12:24;;;;;;;5.43;1.67;;;18.90;81.00;;;;;;21078215;28;20318;-65
2022/07/09 01:22:26;;;;;;;3.70;2.00;;;18.80;82.00;;;;;;21084063;28;20562;-62
2022/07/09 01:32:28;;;;;;;2.90;1.87;;;18.50;82.60;;;;;;21066049;28;20255;-68
2022/07/09 01:42:30;;;;;;;5.37;2.17;;;18.50;83.40;;;;;;21005580;28;20239;-71
2022/07/09 01:52:33;;;;;;;4.67;2.13;;;18.50;83.40;;;;;;21009251;28;20227;-70
2022/07/09 02:02:36;;;;;;;3.87;2.30;;;18.40;84.10;;;;;;21008761;28;20200;-68
2022/07/09 02:12:38;;;;;;;3.37;2.00;;;18.30;84.60;;;;;;21008206;28;20231;-65
2022/07/09 02:22:40;;;;;;;4.80;1.93;;;18.20;85.00;;;;;;21007080;28;20565;-68
2022/07/09 02:32:42;;;;;;;3.13;2.00;;;18.10;85.50;;;;;;21004034;28;20245;-70
2022/07/09 02:42:43;;;;;;;4.97;2.17;;;18.10;85.80;;;;;;21004594;28;20224;-68
2022/07/09 02:52:45;;;;;;;4.40;2.00;;;18.10;86.00;;;;;;21003755;28;20600;-68
2022/07/09 03:02:47;;;;;;;5.83;1.90;;;18.00;86.60;;;;;;21003011;28;20237;-69
2022/07/09 03:12:49;;;;;;;5.70;2.00;;;18.00;86.80;;;;;;21002453;28;20327;-72
2022/07/09 03:22:51;;;;;;;7.23;2.80;;;18.10;86.70;;;;;;21001139;28;20804;-69
2022/07/09 03:32:53;;;;;;;6.47;3.60;;;18.00;86.70;;;;;;21018511;28;20236;-68
2022/07/09 03:42:54;;;;;;;7.87;2.13;;;18.00;86.90;;;;;;21081198;28;20246;-70
2022/07/09 03:52:57;;;;;;;6.80;4.07;;;18.00;87.20;;;;;;21082078;28;20242;-67
2022/07/09 04:02:59;;;;;;;4.37;2.00;;;18.00;87.30;;;;;;21081751;28;20198;-67
2022/07/09 04:13:00;;;;;;;6.30;2.20;;;18.10;87.20;;;;;;21081004;28;20234;-67
2022/07/09 04:23:02;;;;;;;6.57;2.50;;;18.10;87.20;;;;;;21080450;28;20203;-68
2022/07/09 04:33:04;;;;;;;9.20;2.30;;;18.20;87.90;;;;;;21079666;28;20240;-67
2022/07/09 04:43:07;;;;;;;4.23;2.33;;;18.40;88.10;;;;;;21090095;28;20240;-71
2022/07/09 04:53:09;;;;;;;6.30;2.20;;;18.30;87.30;;;;;;21092745;28;20234;-67
2022/07/09 05:03:10;;;;;;;4.53;2.47;;;18.20;87.10;;;;;;21078842;28;20210;-69
2022/07/09 05:13:12;;;;;;;2.97;2.40;;;18.20;87.30;;;;;;21085629;28;20269;-68
2022/07/09 05:23:14;;;;;;;2.90;2.30;;;18.30;87.20;;;;;;21082518;28;20572;-69
2022/07/09 05:33:15;;;;;;;10.10;2.77;;;18.50;86.90;;;;;;21074368;28;20231;-71
2022/07/09 05:43:17;;;;;;;3.07;1.97;;;18.70;86.70;;;;;;21073804;28;20602;-67
2022/07/09 05:53:19;;;;;;;7.60;2.43;;;18.90;86.30;;;;;;21072683;28;20322;-68
2022/07/09 06:03:21;;;;;;;7.13;2.47;;;19.10;85.80;;;;;;20991093;28;20215;-67
2022/07/09 06:13:22;;;;;;;3.07;2.07;;;19.20;85.30;;;;;;21004189;28;20241;-66
2022/07/09 06:23:24;;;;;;;4.73;1.90;;;19.50;85.30;;;;;;21006339;28;20209;-69
2022/07/09 06:33:26;;;;;;;4.93;2.20;;;19.90;84.70;;;;;;21005486;28;20238;-69
2022/07/09 06:43:27;;;;;;;5.37;2.50;;;20.20;84.00;;;;;;21005130;28;20242;-70
2022/07/09 06:53:29;;;;;;;5.20;2.10;;;20.30;82.90;;;;;;21003310;28;20622;-71
2022/07/09 07:03:31;;;;;;;3.37;2.13;;;20.40;83.60;;;;;;21002834;28;20202;-71
2022/07/09 07:13:33;;;;;;;5.30;2.30;;;20.50;83.30;;;;;;21044079;28;20234;-63
2022/07/09 07:23:35;;;;;;;4.93;2.63;;;20.90;82.80;;;;;;21083882;28;20206;-69
2022/07/09 07:33:38;;;;;;;4.10;2.73;;;21.30;81.90;;;;;;21066122;28;20243;-68
2022/07/09 07:43:40;;;;;;;4.87;2.83;;;21.50;80.90;;;;;;20997292;28;20263;-71
2022/07/09 07:53:42;;;;;;;5.53;3.60;;;21.70;81.00;;;;;;21008757;28;20260;-67
2022/07/09 08:03:44;;;;;;;8.67;3.23;;;22.00;79.20;;;;;;21014178;28;20229;-74
2022/07/09 08:13:46;;;;;;;7.10;2.67;;;22.10;78.10;;;;;;21078607;28;20234;-69
2022/07/09 08:23:56;;;;;;;5.37;2.90;;;22.20;77.50;;;;;;21080677;28;20209;-72
2022/07/09 08:33:58;;;;;;;4.43;2.50;;;22.30;77.00;;;;;;21078720;28;20230;-73
2022/07/09 08:44:04;;;;;;;8.13;3.70;;;22.20;74.40;;;;;;21038131;28;20244;-71
2022/07/09 08:54:08;;;;;;;4.17;2.53;;;22.10;74.10;;;;;;20994990;28;20253;-68
2022/07/09 09:04:10;;;;;;;3.07;1.97;;;22.10;75.30;;;;;;20994376;28;20203;-65
2022/07/09 09:14:22;;;;;;;5.13;1.80;;;22.50;74.20;;;;;;21028062;28;20233;-65
2022/07/09 09:24:25;;;;;;;6.53;2.10;;;22.70;71.20;;;;;;21077682;28;20206;-67
2022/07/09 09:34:27;;;;;;;3.30;2.10;;;22.70;69.80;;;;;;21077449;28;20230;-64
2022/07/09 09:44:37;;;;;;;4.27;2.13;;;22.50;69.00;;;;;;21099133;28;20241;-63
2022/07/09 09:54:42;;;;;;;3.73;2.10;;;22.20;69.40;;;;;;21124900;28;20241;-66
2022/07/09 10:04:44;;;;;;;5.47;2.37;;;22.50;70.00;;;;;;21086575;28;20531;-63
2022/07/09 10:14:48;;;;;;;6.37;2.47;;;22.70;71.00;;;;;;21093888;28;20233;-65
2022/07/09 10:24:53;;;;;;;4.83;2.50;;;22.70;70.70;;;;;;21098243;28;20245;-75
2022/07/09 10:35:06;;;;;;;5.40;2.80;;;22.50;70.90;;;;;;21071445;28;20344;-71
2022/07/09 10:45:22;;;;;;;3.77;2.50;;;22.60;72.00;;;;;;21087531;28;20230;-73
2022/07/09 10:55:27;;;;;;;5.47;3.10;;;22.80;70.90;;;;;;21086100;28;20355;-72
2022/07/09 11:05:31;;;;;;;5.77;4.20;;;22.90;70.50;;;;;;21086364;28;20563;-77
2022/07/09 11:15:33;;;;;;;5.47;3.30;;;23.00;70.20;;;;;;21085975;28;20234;-73
2022/07/09 11:25:35;;;;;;;6.17;4.10;;;23.00;70.00;;;;;;21085831;28;20242;-77
2022/07/09 11:35:37;;;;;;;6.30;3.10;;;23.20;68.90;;;;;;21084335;28;20689;-75
2022/07/09 11:45:39;;;;;;;5.47;3.17;;;23.50;67.80;;;;;;21083910;28;20748;-74
2022/07/09 11:55:40;;;;;;;3.97;2.90;;;23.70;65.10;;;;;;21082484;28;20234;-72
2022/07/09 12:05:42;;;;;;;4.50;2.80;;;23.90;64.30;;;;;;21058229;28;20681;-73
2022/07/09 12:15:46;;;;;;;4.43;2.80;;;24.20;62.30;;;;;;20994152;28;20238;-74
2022/07/09 12:25:47;;;;;;;3.57;2.43;;;24.30;61.60;;;;;;20997666;28;20207;-73
2022/07/09 12:35:49;;;;;;;2.97;2.50;;;24.80;60.60;;;;;;20995939;28;20317;-73
2022/07/09 12:45:51;;;;;;;5.60;2.63;;;24.80;59.80;;;;;;20996331;28;20702;-75
2022/07/09 12:55:53;;;;;;;4.90;3.20;;;24.50;60.20;;;;;;20995495;28;20253;-75
2022/07/09 13:06:30;;;;;;;4.77;3.50;;;24.60;60.40;;;;;;20995182;28;20206;-75
2022/07/09 13:16:26;;;;;;;6.67;4.50;;;24.70;60.40;;;;;;20997319;28;20231;-72
2022/07/09 13:26:28;;;;;;;5.70;3.20;;;24.50;59.90;;;;;;21011142;28;20205;-73
2022/07/09 13:36:37;;;;;;;5.33;4.00;;;24.30;59.10;;;;;;21010052;28;20243;-71
2022/07/09 13:46:39;;;;;;;7.60;3.40;;;24.30;58.30;;;;;;21018707;28;20304;-71
2022/07/09 13:56:40;;;;;;;7.27;3.17;;;24.40;58.00;;;;;;21018523;28;20300;-74
2022/07/09 14:06:42;;;;;;;7.27;2.70;;;24.40;58.30;;;;;;21007000;28;20214;-72
2022/07/09 14:16:47;;;;;;;8.43;2.70;;;24.50;58.50;;;;;;21015396;28;20239;-70
2022/07/09 14:26:49;;;;;;;4.00;2.30;;;24.50;58.10;;;;;;21002986;28;20634;-68
2022/07/09 14:36:52;;;;;;;5.03;3.30;;;24.60;57.50;;;;;;21037459;28;20266;-73
2022/07/09 14:46:57;;;;;;;2.93;2.40;;;24.70;55.70;;;;;;21019119;28;20318;-69
2022/07/09 14:56:59;;;;;;;6.37;2.23;;;24.90;54.70;;;;;;21004653;28;20282;-74
2022/07/09 15:07:01;;;;;;;3.53;3.07;;;25.30;54.00;;;;;;21003361;28;20199;-75
2022/07/09 15:17:03;;;;;;;3.83;2.73;;;25.10;54.10;;;;;;21002364;28;20258;-75
2022/07/09 15:27:05;;;;;;;4.00;3.03;;;24.90;53.20;;;;;;21001914;28;20207;-75
2022/07/09 15:37:07;;;;;;;3.77;3.27;;;25.00;53.10;;;;;;21005251;28;20602;-75
2022/07/09 15:47:09;;;;;;;8.27;3.30;;;24.70;53.30;;;;;;21000213;28;20231;-69
2022/07/09 15:57:11;;;;;;;5.37;3.80;;;24.40;53.70;;;;;;21000263;28;20239;-69
2022/07/09 16:07:13;;;;;;;5.50;4.87;;;24.60;54.30;;;;;;21000054;28;20552;-68
2022/07/09 16:17:14;;;;;;;6.37;3.30;;;24.90;54.50;;;;;;20993978;28;20226;-70
2022/07/09 16:27:16;;;;;;;4.53;4.03;;;24.80;54.70;;;;;;20996937;28;20209;-68
2022/07/09 16:37:18;;;;;;;4.67;3.17;;;24.60;55.00;;;;;;20996326;28;20238;-77
2022/07/09 16:47:20;;;;;;;3.13;2.50;;;24.40;55.50;;;;;;20994617;28;20729;-72
2022/07/09 16:57:21;;;;;;;5.27;3.07;;;24.10;55.60;;;;;;20997306;28;20231;-69
2022/07/09 17:07:23;;;;;;;6.50;4.93;;;24.00;55.80;;;;;;20997947;28;20206;-70
2022/07/09 17:17:25;;;;;;;7.10;6.40;;;23.90;56.00;;;;;;20997448;28;20239;-68
2022/07/09 17:27:27;;;;;;;7.10;3.90;;;23.80;56.20;;;;;;21002690;28;20215;-73
2022/07/09 17:37:29;;;;;;;3.70;3.40;;;23.80;56.40;;;;;;21010642;28;20318;-73
2022/07/09 17:47:31;;;;;;;3.53;2.90;;;23.70;56.30;;;;;;21045864;28;20414;-71
2022/07/09 17:57:32;;;;;;;5.73;2.50;;;23.60;56.30;;;;;;21023229;28;20222;-73
2022/07/09 18:07:34;;;;;;;2.80;2.50;;;23.50;56.90;;;;;;21110902;28;20642;-71
2022/07/09 18:17:37;;;;;;;4.53;2.40;;;23.30;59.80;;;;;;21108628;28;20329;-70
2022/07/09 18:27:39;;;;;;;4.90;2.40;;;22.90;61.00;;;;;;21093534;28;20214;-71
2022/07/09 18:37:41;;;;;;;4.37;2.00;;;22.70;62.30;;;;;;21043436;28;20235;-75
2022/07/09 18:47:43;;;;;;;5.50;4.17;;;22.40;63.50;;;;;;21006081;28;20642;-74
2022/07/09 18:57:44;;;;;;;2.50;2.30;;;22.20;65.50;;;;;;21003465;28;20241;-78
2022/07/09 19:07:47;;;;;;;5.03;2.73;;;21.90;67.20;;;;;;21001995;28;20211;-73
2022/07/09 19:17:50;;;;;;;6.17;3.63;;;21.60;70.50;;;;;;21000227;28;20241;-70
2022/07/09 19:27:52;;;;;;;3.50;2.30;;;21.30;74.10;;;;;;21002989;28;20305;-73
2022/07/09 19:37:59;;;;;;;4.40;2.90;;;21.10;75.60;;;;;;21073735;28;20293;-73
2022/07/09 19:48:01;;;;;;;5.63;3.43;;;21.00;77.30;;;;;;21083450;28;20238;-72
2022/07/09 19:58:02;;;;;;;4.37;2.60;;;20.90;78.30;;;;;;21081688;28;20233;-73
2022/07/09 20:08:04;;;;;;;7.27;3.00;;;20.70;79.00;;;;;;21084897;28;20214;-72
2022/07/09 20:18:06;;;;;;;3.40;2.83;;;20.40;79.60;;;;;;21076537;28;20243;-72
2022/07/09 20:28:08;;;;;;;5.17;4.20;;;20.30;80.90;;;;;;21077852;28;20230;-73
2022/07/09 20:38:10;;;;;;;4.97;4.07;;;20.10;82.00;;;;;;21078127;28;20241;-73
2022/07/09 20:48:12;;;;;;;5.30;4.50;;;20.10;83.10;;;;;;21077120;28;20237;-72
2022/07/09 20:58:13;;;;;;;4.43;3.87;;;19.90;84.20;;;;;;21076872;28;20238;-73
2022/07/09 21:08:15;;;;;;;3.90;3.60;;;19.80;85.50;;;;;;21076429;28;20210;-73
2022/07/09 21:28:39;;;;;;;4.20;3.80;;;19.50;87.90;;;;;;21075989;28;20278;-73
2022/07/09 21:38:41;;;;;;;4.30;3.70;;;19.20;89.50;;;;;;21061008;28;20237;-73
2022/07/09 21:48:44;;;;;;;5.67;3.83;;;18.90;90.60;;;;;;21008119;28;20256;-73
2022/07/09 21:58:46;;;;;;;4.47;3.80;;;18.70;91.30;;;;;;21078030;28;20231;-73
2022/07/09 22:08:48;;;;;;;3.83;3.53;;;18.60;91.80;;;;;;21089281;28;20214;-71
2022/07/09 22:18:50;;;;;;;4.00;3.60;;;18.60;92.20;;;;;;21088884;28;20239;-72
2022/07/09 22:28:51;;;;;;;5.63;3.60;;;18.60;92.40;;;;;;21088803;28;20217;-72
2022/07/09 22:38:53;;;;;;;4.07;3.50;;;18.70;92.50;;;;;;21098048;28;20227;-73
2022/07/09 22:48:55;;;;;;;6.03;3.73;;;18.50;92.80;;;;;;21085502;28;20594;-72
2022/07/09 22:58:57;;;;;;;5.30;3.73;;;18.50;93.20;;;;;;21085904;28;20235;-73
2022/07/09 23:08:59;;;;;;;4.50;4.07;;;18.40;93.40;;;;;;21086820;28;20290;-73
2022/07/09 23:19:05;;;;;;;4.80;4.17;;;18.30;93.70;;;;;;21085932;28;20235;-72
2022/07/09 23:29:07;;;;;;;4.63;3.70;;;18.20;93.90;;;;;;21080889;28;20208;-73
2022/07/09 23:39:09;;;;;;;4.83;4.20;;;18.20;94.20;;;;;;21084907;28;20232;-72
2022/07/09 23:49:11;;;;;;;4.73;3.70;;;18.20;94.30;;;;;;21084079;28;20239;-72
2022/07/09 23:59:12;;;;;;;6.57;4.10;;;18.10;94.40;;;;;;21083020;28;20231;-72
